Time;durP1;ratioP1;P1;durP2;ratioP2;P2;SDS_P1;SDS_P2;PMS_P1;PMS_P2;Temp;Humidity;BMP_temperature;BMP_pressure;BME280_temperature;BME280_humidity;BME280_pressure;Samples;Min_cycle;Max_cycle;Signal;HPM_P1;HPM_P2
2023/10/25 00:02:24;;;;;;;0.90;0.85;;;8.20;99.90;;;;;;5024499;28;20057;-80
2023/10/25 00:04:56;;;;;;;0.55;0.40;;;8.20;99.90;;;;;;5024330;28;20041;-80
2023/10/25 00:07:22;;;;;;;0.08;0.08;;;8.20;99.90;;;;;;5024194;28;20045;-80
2023/10/25 00:09:48;;;;;;;0.35;0.35;;;8.20;99.90;;;;;;5023788;28;20042;-80
2023/10/25 00:12:13;;;;;;;0.17;0.17;;;8.20;99.90;;;;;;5023497;28;20081;-81
2023/10/25 00:14:39;;;;;;;0.90;0.52;;;8.20;99.90;;;;;;5022973;28;20068;-81
2023/10/25 00:17:05;;;;;;;0.52;0.35;;;8.20;99.90;;;;;;5022707;28;20050;-80
2023/10/25 00:19:30;;;;;;;1.10;0.88;;;8.20;99.90;;;;;;5022948;28;20281;-81
2023/10/25 00:21:56;;;;;;;0.30;0.30;;;8.20;99.90;;;;;;5024161;28;20511;-81
2023/10/25 00:24:22;;;;;;;1.20;1.00;;;8.30;99.90;;;;;;5023529;28;20050;-81
2023/10/25 00:26:47;;;;;;;1.55;1.00;;;8.30;99.90;;;;;;5024228;28;20084;-81
2023/10/25 00:29:13;;;;;;;0.35;0.35;;;8.20;99.90;;;;;;5024306;28;20041;-82
2023/10/25 00:31:38;;;;;;;4.03;0.98;;;8.10;99.90;;;;;;5023229;28;20197;-82
2023/10/25 00:34:04;;;;;;;0.22;0.20;;;8.00;99.90;;;;;;5023495;28;20053;-80
2023/10/25 00:36:29;;;;;;;0.35;0.35;;;7.90;99.90;;;;;;5023296;28;20041;-82
2023/10/25 00:38:55;;;;;;;0.95;0.50;;;7.90;99.90;;;;;;5023596;28;20416;-81
2023/10/25 00:41:21;;;;;;;2.90;1.13;;;7.90;99.90;;;;;;5022706;28;20129;-80
2023/10/25 00:43:46;;;;;;;0.25;0.20;;;7.90;99.90;;;;;;5022872;28;20049;-81
2023/10/25 00:46:18;;;;;;;0.22;0.22;;;7.80;99.90;;;;;;5022090;28;20038;-80
2023/10/25 00:48:45;;;;;;;0.25;0.25;;;7.80;99.90;;;;;;5021577;28;20050;-80
2023/10/25 00:51:13;;;;;;;0.10;0.10;;;7.80;99.90;;;;;;5023155;28;20396;-81
2023/10/25 00:53:40;;;;;;;0.95;0.70;;;7.80;99.90;;;;;;5022567;28;20038;-81
2023/10/25 00:56:08;;;;;;;0.45;0.45;;;7.80;99.90;;;;;;5022646;28;20064;-81
2023/10/25 00:58:34;;;;;;;0.43;0.43;;;7.80;99.90;;;;;;5022517;28;20042;-81
2023/10/25 01:01:00;;;;;;;2.28;0.32;;;7.80;99.90;;;;;;5023360;28;20377;-80
2023/10/25 01:03:26;;;;;;;0.20;0.20;;;7.80;99.90;;;;;;5022900;28;20037;-81
2023/10/25 01:05:52;;;;;;;11.77;1.48;;;7.70;99.90;;;;;;5023150;28;20069;-81
2023/10/25 01:08:19;;;;;;;0.75;0.57;;;7.70;99.90;;;;;;5022602;28;20049;-81
2023/10/25 01:10:49;;;;;;;0.65;0.65;;;7.60;99.90;;;;;;5021752;28;20058;-81
2023/10/25 01:13:14;;;;;;;7.05;1.42;;;7.50;99.90;;;;;;5022963;28;20045;-80
2023/10/25 01:15:40;;;;;;;0.43;0.43;;;7.60;99.90;;;;;;5022315;28;20038;-81
2023/10/25 01:18:05;;;;;;;0.00;0.00;;;7.60;99.90;;;;;;5023044;28;20050;-81
2023/10/25 01:20:32;;;;;;;0.40;0.40;;;7.60;99.90;;;;;;5023387;28;20483;-81
2023/10/25 01:22:58;;;;;;;0.30;0.30;;;7.60;99.90;;;;;;5022828;28;20049;-81
2023/10/25 01:25:24;;;;;;;2.53;0.65;;;7.60;99.90;;;;;;5021812;28;20101;-81
2023/10/25 01:27:50;;;;;;;0.40;0.40;;;7.70;99.90;;;;;;5021186;28;20084;-82
2023/10/25 01:30:16;;;;;;;0.00;0.00;;;7.60;99.90;;;;;;5021544;28;20053;-81
2023/10/25 01:32:41;;;;;;;0.52;0.52;;;7.50;99.90;;;;;;5022771;28;20045;-81
2023/10/25 01:35:08;;;;;;;0.35;0.35;;;7.40;99.90;;;;;;5023052;28;20046;-81
2023/10/25 01:37:33;;;;;;;0.47;0.40;;;7.40;99.90;;;;;;5022863;28;20045;-81
2023/10/25 01:39:59;;;;;;;0.50;0.50;;;7.40;99.90;;;;;;5022344;28;20042;-81
2023/10/25 01:42:25;;;;;;;0.75;0.55;;;7.40;99.90;;;;;;5022573;28;20068;-81
2023/10/25 01:44:50;;;;;;;0.00;0.00;;;7.40;99.90;;;;;;5022181;28;20045;-81
2023/10/25 01:47:16;;;;;;;0.20;0.20;;;7.40;99.90;;;;;;5022667;28;20064;-81
2023/10/25 01:49:43;;;;;;;0.32;0.32;;;7.40;99.90;;;;;;5022308;28;20053;-81
2023/10/25 01:52:08;;;;;;;0.55;0.55;;;7.40;99.90;;;;;;5022250;28;20458;-82
2023/10/25 01:54:34;;;;;;;0.30;0.30;;;7.40;99.90;;;;;;5022409;28;20034;-81
2023/10/25 01:57:00;;;;;;;0.80;0.70;;;7.40;99.90;;;;;;5022439;28;20570;-81
2023/10/25 01:59:26;;;;;;;2.10;0.98;;;7.30;99.90;;;;;;5022329;28;20069;-80
2023/10/25 02:01:51;;;;;;;0.45;0.45;;;7.30;99.90;;;;;;5022497;28;20534;-81
2023/10/25 02:04:17;;;;;;;0.15;0.10;;;7.30;99.90;;;;;;5022149;28;20073;-81
2023/10/25 02:06:43;;;;;;;5.32;1.88;;;7.30;99.90;;;;;;5021954;28;20090;-80
2023/10/25 02:09:08;;;;;;;0.17;0.17;;;7.30;99.90;;;;;;5021493;28;20041;-81
2023/10/25 02:11:34;;;;;;;0.28;0.15;;;7.30;99.90;;;;;;5022037;28;20053;-81
2023/10/25 02:13:59;;;;;;;1.45;1.17;;;7.60;99.90;;;;;;5021655;28;20111;-81
2023/10/25 02:16:26;;;;;;;0.40;0.40;;;7.50;99.90;;;;;;5022117;28;20073;-80
2023/10/25 02:18:51;;;;;;;1.75;0.75;;;7.50;99.90;;;;;;5022211;28;20053;-81
2023/10/25 02:21:17;;;;;;;0.38;0.35;;;7.50;99.90;;;;;;5021892;28;20045;-81
2023/10/25 02:23:43;;;;;;;0.40;0.40;;;7.60;99.90;;;;;;5021958;28;20434;-81
2023/10/25 02:26:08;;;;;;;0.43;0.32;;;7.50;99.90;;;;;;5021785;28;20081;-80
2023/10/25 02:28:34;;;;;;;2.30;0.43;;;7.50;99.90;;;;;;5022115;28;20044;-80
2023/10/25 02:31:01;;;;;;;2.03;0.45;;;7.50;99.90;;;;;;5021810;28;20526;-80
2023/10/25 02:33:27;;;;;;;5.28;1.33;;;7.50;99.90;;;;;;5022611;28;20038;-80
2023/10/25 02:35:53;;;;;;;0.52;0.52;;;7.50;99.90;;;;;;5021499;28;20049;-81
2023/10/25 02:38:18;;;;;;;0.15;0.13;;;7.50;99.90;;;;;;5021766;28;20072;-81
2023/10/25 02:40:44;;;;;;;0.15;0.15;;;7.50;99.90;;;;;;5022021;28;20399;-81
2023/10/25 02:43:10;;;;;;;0.80;0.63;;;7.40;99.90;;;;;;5022255;28;20102;-80
2023/10/25 02:45:35;;;;;;;2.25;1.45;;;7.40;99.90;;;;;;5022290;28;20046;-80
2023/10/25 02:48:01;;;;;;;0.28;0.28;;;7.40;99.90;;;;;;5022453;28;20491;-81
2023/10/25 02:50:26;;;;;;;0.63;0.60;;;7.40;99.90;;;;;;5022204;28;20048;-81
2023/10/25 02:52:52;;;;;;;0.15;0.13;;;7.40;99.90;;;;;;5022033;28;20045;-81
2023/10/25 02:55:18;;;;;;;0.80;0.57;;;7.40;99.90;;;;;;5021717;28;20038;-81
2023/10/25 02:57:43;;;;;;;0.38;0.38;;;7.30;99.90;;;;;;5022029;28;20050;-81
2023/10/25 03:00:10;;;;;;;1.08;0.55;;;7.40;99.90;;;;;;5022112;28;20049;-81
2023/10/25 03:02:38;;;;;;;0.10;0.10;;;7.40;99.90;;;;;;5022730;28;20049;-80
2023/10/25 03:05:04;;;;;;;0.28;0.25;;;8.50;99.90;;;;;;5021588;28;20034;-81
2023/10/25 03:07:30;;;;;;;0.88;0.82;;;7.30;99.90;;;;;;5021654;28;20137;-81
2023/10/25 03:09:56;;;;;;;0.63;0.50;;;7.30;99.90;;;;;;5021808;28;20062;-81
2023/10/25 03:12:21;;;;;;;8.20;0.47;;;7.30;99.90;;;;;;5020263;28;20484;-81
2023/10/25 03:14:47;;;;;;;0.10;0.10;;;7.20;99.90;;;;;;5020828;28;20102;-81
2023/10/25 03:17:12;;;;;;;0.20;0.20;;;7.20;99.90;;;;;;5021585;28;20073;-80
2023/10/25 03:19:38;;;;;;;0.17;0.17;;;7.20;99.90;;;;;;5021168;28;20042;-81
2023/10/25 03:22:06;;;;;;;1.98;1.27;;;7.20;99.90;;;;;;5020896;28;20582;-81
2023/10/25 03:24:32;;;;;;;1.70;1.08;;;7.20;99.90;;;;;;5020913;28;20050;-81
2023/10/25 03:26:58;;;;;;;0.85;0.55;;;7.20;99.90;;;;;;5020181;28;20072;-81
2023/10/25 03:29:23;;;;;;;2.10;0.73;;;7.20;99.90;;;;;;5020712;28;20046;-81
2023/10/25 03:31:49;;;;;;;0.47;0.25;;;7.30;99.90;;;;;;5021283;28;20041;-81
2023/10/25 03:34:18;;;;;;;1.55;1.45;;;7.30;99.90;;;;;;5020777;28;20041;-80
2023/10/25 03:36:44;;;;;;;1.55;1.45;;;7.40;99.90;;;;;;5021508;28;20042;-81
2023/10/25 03:39:14;;;;;;;2.13;1.70;;;7.40;99.90;;;;;;5021562;28;20104;-81
2023/10/25 03:41:41;;;;;;;0.40;0.25;;;7.50;99.90;;;;;;5021530;28;20072;-81
2023/10/25 03:44:07;;;;;;;2.72;1.92;;;7.40;99.90;;;;;;5021419;28;20461;-80
2023/10/25 03:46:32;;;;;;;0.47;0.47;;;7.50;99.90;;;;;;5020796;28;20065;-81
2023/10/25 03:48:58;;;;;;;0.77;0.77;;;7.50;99.90;;;;;;5021392;28;20391;-81
2023/10/25 03:51:23;;;;;;;0.15;0.15;;;7.40;99.90;;;;;;5023558;28;20148;-80
2023/10/25 03:53:49;;;;;;;0.22;0.22;;;7.30;99.90;;;;;;5022604;28;20085;-81
2023/10/25 03:56:14;;;;;;;0.90;0.90;;;7.30;99.90;;;;;;5024101;28;20056;-82
2023/10/25 03:58:40;;;;;;;2.47;0.75;;;7.20;99.90;;;;;;5025508;28;20053;-81
2023/10/25 04:01:06;;;;;;;0.43;0.35;;;7.10;99.90;;;;;;5023785;28;20514;-81
2023/10/25 04:03:32;;;;;;;1.55;1.45;;;7.10;99.90;;;;;;5023757;28;20038;-81
2023/10/25 04:05:58;;;;;;;1.88;0.98;;;7.10;99.90;;;;;;5024880;28;20042;-81
2023/10/25 04:08:24;;;;;;;0.10;0.10;;;7.10;99.90;;;;;;5025288;28;20080;-81
2023/10/25 04:10:56;;;;;;;0.85;0.82;;;7.10;99.90;;;;;;5025146;28;20522;-81
2023/10/25 04:13:23;;;;;;;0.38;0.38;;;7.10;99.90;;;;;;5023743;28;20049;-80
2023/10/25 04:16:05;;;;;;;1.10;0.98;;;7.10;99.90;;;;;;5028185;28;20057;-81
2023/10/25 04:18:32;;;;;;;0.47;0.47;;;7.20;99.90;;;;;;5021167;28;20048;-81
2023/10/25 04:20:59;;;;;;;2.28;0.52;;;7.20;99.90;;;;;;5022787;28;20096;-80
2023/10/25 04:23:26;;;;;;;2.65;1.13;;;8.10;99.90;;;;;;5021240;28;20046;-80
2023/10/25 04:25:52;;;;;;;0.68;0.65;;;7.10;99.90;;;;;;5024347;28;20046;-81
2023/10/25 04:28:18;;;;;;;1.27;0.52;;;7.00;99.90;;;;;;5023829;28;20037;-81
2023/10/25 04:30:44;;;;;;;1.02;0.95;;;6.90;99.90;;;;;;5023968;28;20138;-81
2023/10/25 04:33:12;;;;;;;0.22;0.22;;;6.90;99.90;;;;;;5023866;28;20045;-81
2023/10/25 04:35:37;;;;;;;0.00;0.00;;;6.90;99.90;;;;;;5023942;28;20041;-81
2023/10/25 04:38:03;;;;;;;1.90;1.60;;;6.80;99.90;;;;;;5024190;28;20038;-81
2023/10/25 04:40:30;;;;;;;0.10;0.10;;;6.80;99.90;;;;;;5024085;28;20038;-80
2023/10/25 04:42:56;;;;;;;0.52;0.52;;;6.80;99.90;;;;;;5023768;28;20139;-80
2023/10/25 04:45:22;;;;;;;2.42;1.65;;;6.80;99.90;;;;;;5023867;28;20053;-80
2023/10/25 04:47:51;;;;;;;0.30;0.30;;;6.80;99.90;;;;;;5023977;28;20496;-81
2023/10/25 04:50:18;;;;;;;0.22;0.22;;;6.70;99.90;;;;;;5023269;28;20072;-81
2023/10/25 04:52:44;;;;;;;0.57;0.57;;;6.80;99.90;;;;;;5023622;28;20373;-80
2023/10/25 04:55:11;;;;;;;0.75;0.70;;;6.80;99.90;;;;;;5023350;28;20072;-80
2023/10/25 04:57:36;;;;;;;0.65;0.55;;;6.80;99.90;;;;;;5023641;28;20046;-80
2023/10/25 05:00:03;;;;;;;0.25;0.22;;;6.80;99.90;;;;;;5023047;28;20087;-80
2023/10/25 05:02:28;;;;;;;0.82;0.52;;;6.80;99.90;;;;;;5022790;28;20050;-81
2023/10/25 05:04:54;;;;;;;0.00;0.00;;;6.80;99.90;;;;;;5023995;28;20046;-80
2023/10/25 05:07:20;;;;;;;0.05;0.05;;;6.80;99.90;;;;;;5023572;28;20030;-81
2023/10/25 05:09:46;;;;;;;1.05;0.95;;;6.90;99.90;;;;;;5024360;28;20380;-80
2023/10/25 05:12:17;;;;;;;0.30;0.30;;;6.90;99.90;;;;;;5022734;28;20120;-82
2023/10/25 05:14:43;;;;;;;0.43;0.43;;;6.80;99.90;;;;;;5023477;28;20057;-81
2023/10/25 05:17:09;;;;;;;1.65;1.00;;;6.70;99.90;;;;;;5023259;28;20042;-81
2023/10/25 05:19:35;;;;;;;0.10;0.10;;;6.70;99.90;;;;;;5022655;28;20041;-81
2023/10/25 05:22:10;;;;;;;0.35;0.35;;;6.70;99.90;;;;;;5022637;28;20510;-82
2023/10/25 05:24:35;;;;;;;0.30;0.30;;;6.80;99.90;;;;;;5021451;28;20041;-81
2023/10/25 05:27:01;;;;;;;8.77;1.48;;;6.70;99.90;;;;;;5024444;28;20092;-80
2023/10/25 05:29:27;;;;;;;0.10;0.10;;;6.80;99.90;;;;;;5025069;28;20120;-80
2023/10/25 05:31:55;;;;;;;1.40;0.60;;;6.80;99.90;;;;;;5024104;28;20049;-80
2023/10/25 05:34:21;;;;;;;0.70;0.63;;;6.80;99.90;;;;;;5024632;28;20041;-81
2023/10/25 05:36:47;;;;;;;0.57;0.57;;;6.90;99.90;;;;;;5024273;28;20048;-81
2023/10/25 05:39:13;;;;;;;0.47;0.47;;;6.80;99.90;;;;;;5022875;28;20072;-80
2023/10/25 05:41:41;;;;;;;0.25;0.25;;;6.80;99.90;;;;;;5020451;28;20084;-80
2023/10/25 05:44:10;;;;;;;0.43;0.30;;;6.80;99.90;;;;;;5020939;28;20041;-80
2023/10/25 05:46:36;;;;;;;1.10;0.63;;;6.80;99.90;;;;;;5020757;28;20049;-80
2023/10/25 05:49:02;;;;;;;0.93;0.75;;;6.80;99.90;;;;;;5020841;28;20034;-81
2023/10/25 05:51:28;;;;;;;0.30;0.20;;;6.70;99.90;;;;;;5021056;28;20037;-80
2023/10/25 05:53:53;;;;;;;0.17;0.17;;;6.70;99.90;;;;;;5019850;28;20073;-81
2023/10/25 05:56:24;;;;;;;0.35;0.35;;;6.60;99.90;;;;;;5019925;28;20495;-81
2023/10/25 05:58:49;;;;;;;0.40;0.40;;;6.60;99.90;;;;;;5020578;28;20061;-81
2023/10/25 06:01:16;;;;;;;0.55;0.32;;;6.60;99.90;;;;;;5020000;28;20042;-80
2023/10/25 06:03:46;;;;;;;0.30;0.30;;;6.60;99.90;;;;;;5020166;28;20088;-80
2023/10/25 06:06:12;;;;;;;0.20;0.13;;;6.60;99.90;;;;;;5020073;28;20403;-80
2023/10/25 06:08:38;;;;;;;0.13;0.13;;;6.60;99.90;;;;;;5019853;28;20094;-81
2023/10/25 06:11:05;;;;;;;2.20;1.88;;;6.60;99.90;;;;;;5020194;28;20034;-80
2023/10/25 06:13:30;;;;;;;0.10;0.10;;;6.60;99.90;;;;;;5019772;28;20053;-81
2023/10/25 06:15:56;;;;;;;0.63;0.52;;;6.60;99.90;;;;;;5019960;28;20046;-81
2023/10/25 06:18:22;;;;;;;6.63;1.50;;;6.60;99.90;;;;;;5019934;28;20117;-81
2023/10/25 06:20:48;;;;;;;1.38;1.13;;;6.60;99.90;;;;;;5020256;28;20046;-80
2023/10/25 06:23:14;;;;;;;0.30;0.30;;;6.60;99.90;;;;;;5019962;28;20068;-80
2023/10/25 06:25:39;;;;;;;0.03;0.03;;;6.60;99.90;;;;;;5019503;28;20034;-80
2023/10/25 06:28:06;;;;;;;0.20;0.20;;;6.60;99.90;;;;;;5020185;28;20045;-81
2023/10/25 06:30:33;;;;;;;16.35;1.15;;;6.70;99.90;;;;;;5019274;28;20113;-80
2023/10/25 06:32:59;;;;;;;1.75;1.02;;;6.70;99.90;;;;;;5019741;28;20075;-80
2023/10/25 06:35:25;;;;;;;0.38;0.38;;;6.70;99.90;;;;;;5019483;28;20033;-80
2023/10/25 06:37:51;;;;;;;0.22;0.22;;;6.80;99.90;;;;;;5019760;28;20053;-80
2023/10/25 06:40:17;;;;;;;6.07;1.60;;;6.70;99.90;;;;;;5018070;28;20034;-80
2023/10/25 06:42:43;;;;;;;2.13;1.02;;;6.80;99.90;;;;;;5019234;28;20133;-80
2023/10/25 06:45:13;;;;;;;0.35;0.35;;;6.70;99.90;;;;;;5019217;28;20077;-80
2023/10/25 06:47:40;;;;;;;1.65;1.00;;;6.70;99.90;;;;;;5019051;28;20049;-80
2023/10/25 06:50:06;;;;;;;0.45;0.45;;;6.80;99.90;;;;;;5001853;28;20407;-81
2023/10/25 06:52:32;;;;;;;0.57;0.57;;;6.70;99.90;;;;;;5018825;28;20046;-80
2023/10/25 06:54:58;;;;;;;1.20;0.52;;;6.70;99.90;;;;;;5019537;28;20065;-81
2023/10/25 06:57:24;;;;;;;1.33;1.25;;;6.80;99.90;;;;;;5019425;28;20050;-80
2023/10/25 06:59:50;;;;;;;1.40;1.23;;;6.90;99.90;;;;;;5018978;28;20507;-80
2023/10/25 07:02:30;;;;;;;1.77;1.27;;;6.90;99.90;;;;;;5017338;28;20044;-80
2023/10/25 07:05:09;;;;;;;1.95;0.60;;;7.00;99.90;;;;;;5015669;28;20050;-80
2023/10/25 07:07:35;;;;;;;0.25;0.20;;;6.90;99.90;;;;;;5017994;28;20337;-80
2023/10/25 07:10:01;;;;;;;0.93;0.73;;;7.00;99.90;;;;;;5017801;28;20068;-80
2023/10/25 07:12:27;;;;;;;4.68;2.95;;;7.00;99.90;;;;;;5017484;28;20037;-80
2023/10/25 07:14:52;;;;;;;0.82;0.82;;;7.10;99.90;;;;;;5016717;28;20038;-80
2023/10/25 07:17:18;;;;;;;1.00;0.63;;;7.10;99.90;;;;;;5016919;28;20050;-79
2023/10/25 07:19:46;;;;;;;1.48;1.38;;;7.20;99.90;;;;;;5017618;28;20078;-80
2023/10/25 07:22:11;;;;;;;0.15;0.15;;;7.30;99.90;;;;;;5015597;28;20050;-80
2023/10/25 07:24:37;;;;;;;1.08;1.05;;;7.30;99.90;;;;;;5018829;28;20133;-80
2023/10/25 07:27:02;;;;;;;2.22;0.93;;;7.30;99.90;;;;;;5021473;28;20046;-79
2023/10/25 07:29:28;;;;;;;0.63;0.38;;;7.30;99.90;;;;;;5020851;28;20107;-80
2023/10/25 07:31:54;;;;;;;0.20;0.20;;;7.30;99.90;;;;;;5021055;28;20087;-80
2023/10/25 07:34:20;;;;;;;0.80;0.75;;;7.30;99.90;;;;;;5021075;28;20045;-80
2023/10/25 07:36:45;;;;;;;0.10;0.10;;;7.20;99.90;;;;;;5019762;28;20054;-80
2023/10/25 07:39:15;;;;;;;1.52;1.05;;;7.30;99.90;;;;;;5021083;28;20084;-80
2023/10/25 07:41:40;;;;;;;0.10;0.10;;;7.30;99.90;;;;;;5020616;28;20057;-80
2023/10/25 07:44:07;;;;;;;0.22;0.22;;;7.30;99.90;;;;;;5020288;28;20149;-80
2023/10/25 07:46:32;;;;;;;1.45;0.95;;;7.40;99.90;;;;;;5020810;28;20049;-80
2023/10/25 07:48:58;;;;;;;0.25;0.25;;;7.50;99.90;;;;;;5021368;28;20042;-80
2023/10/25 07:51:23;;;;;;;2.22;1.17;;;7.60;99.90;;;;;;5020378;28;20073;-80
2023/10/25 07:53:49;;;;;;;0.63;0.52;;;7.70;99.90;;;;;;5020767;28;20116;-79
2023/10/25 07:56:15;;;;;;;3.25;1.60;;;7.70;99.90;;;;;;5019061;28;20058;-79
2023/10/25 07:58:41;;;;;;;0.95;0.77;;;7.70;99.90;;;;;;5019438;28;20093;-79
2023/10/25 08:01:07;;;;;;;1.17;0.85;;;7.70;99.90;;;;;;5019963;28;20037;-79
2023/10/25 08:03:32;;;;;;;0.20;0.20;;;7.70;99.90;;;;;;5019305;28;20512;-79
2023/10/25 08:05:58;;;;;;;0.93;0.65;;;7.80;99.90;;;;;;5019928;28;20057;-79
2023/10/25 08:08:23;;;;;;;0.95;0.50;;;7.70;99.90;;;;;;5019342;28;20062;-79
2023/10/25 08:10:59;;;;;;;0.17;0.17;;;7.80;99.90;;;;;;5020043;28;20046;-79
2023/10/25 08:13:24;;;;;;;0.50;0.50;;;7.80;99.90;;;;;;5019064;28;20081;-80
2023/10/25 08:15:56;;;;;;;0.05;0.05;;;7.90;99.90;;;;;;5019457;28;20037;-79
2023/10/25 08:18:22;;;;;;;1.10;1.00;;;7.90;99.90;;;;;;5017940;28;20146;-80
2023/10/25 08:20:47;;;;;;;2.10;1.65;;;8.00;99.90;;;;;;5019383;28;20046;-80
2023/10/25 08:23:13;;;;;;;0.65;0.63;;;8.10;99.90;;;;;;5019486;28;20147;-80
2023/10/25 08:25:38;;;;;;;0.25;0.25;;;8.10;99.90;;;;;;5019061;28;20040;-79
2023/10/25 08:28:04;;;;;;;3.15;0.80;;;8.20;99.90;;;;;;5019520;28;20054;-80
2023/10/25 08:30:29;;;;;;;1.48;1.15;;;8.30;99.90;;;;;;5019307;28;20048;-80
2023/10/25 08:32:55;;;;;;;0.10;0.10;;;8.40;99.90;;;;;;5005631;28;20053;-80
2023/10/25 08:35:20;;;;;;;1.17;1.08;;;8.50;99.90;;;;;;5021543;28;20419;-80
2023/10/25 08:37:46;;;;;;;0.47;0.38;;;8.60;99.90;;;;;;5019671;28;20124;-80
2023/10/25 08:40:12;;;;;;;0.28;0.25;;;8.60;99.90;;;;;;5019870;28;20041;-80
2023/10/25 08:42:38;;;;;;;3.72;0.65;;;8.70;99.90;;;;;;5019232;28;20105;-80
2023/10/25 08:45:04;;;;;;;0.85;0.73;;;9.30;99.90;;;;;;5019170;28;20076;-79
2023/10/25 08:47:30;;;;;;;1.25;0.93;;;8.80;99.90;;;;;;5019417;28;20053;-80
2023/10/25 08:49:55;;;;;;;16.67;1.13;;;9.80;99.90;;;;;;5017986;28;20492;-80
2023/10/25 08:52:27;;;;;;;0.22;0.22;;;9.10;99.90;;;;;;5019807;28;20104;-80
2023/10/25 08:54:53;;;;;;;0.45;0.45;;;9.20;99.90;;;;;;5018965;28;20120;-80
2023/10/25 08:57:19;;;;;;;0.90;0.85;;;9.20;99.90;;;;;;5020240;28;20088;-80
2023/10/25 08:59:46;;;;;;;4.72;1.70;;;9.30;99.90;;;;;;5021557;28;20041;-80
2023/10/25 09:02:12;;;;;;;0.00;0.00;;;9.40;99.90;;;;;;5017750;28;20074;-80
2023/10/25 09:04:56;;;;;;;1.02;0.85;;;9.40;99.90;;;;;;5020993;28;20464;-79
2023/10/25 09:07:31;;;;;;;2.05;0.65;;;9.40;99.90;;;;;;5020975;28;20037;-80
2023/10/25 09:09:58;;;;;;;0.63;0.60;;;9.50;99.90;;;;;;5021217;28;20057;-80
2023/10/25 09:12:24;;;;;;;3.60;1.45;;;10.80;99.90;;;;;;5020800;28;20065;-80
2023/10/25 09:14:50;;;;;;;0.30;0.30;;;9.70;99.90;;;;;;5020389;28;20049;-80
2023/10/25 09:17:16;;;;;;;0.13;0.13;;;9.70;99.90;;;;;;5020073;28;20132;-80
2023/10/25 09:19:47;;;;;;;0.05;0.05;;;9.70;99.90;;;;;;5020861;28;20062;-80
2023/10/25 09:22:23;;;;;;;1.65;1.00;;;9.80;99.90;;;;;;5020675;28;20512;-80
2023/10/25 09:24:56;;;;;;;1.10;0.82;;;9.80;99.90;;;;;;5020971;28;20376;-79
2023/10/25 09:27:22;;;;;;;1.55;0.77;;;9.80;99.90;;;;;;5018640;28;20042;-79
2023/10/25 09:29:52;;;;;;;0.85;0.85;;;10.00;99.90;;;;;;5018134;28;20401;-80
2023/10/25 09:32:19;;;;;;;4.10;2.33;;;9.90;99.90;;;;;;5018675;28;20115;-80
2023/10/25 09:34:47;;;;;;;0.63;0.63;;;9.90;99.90;;;;;;5018581;28;20041;-80
2023/10/25 09:37:13;;;;;;;0.00;0.00;;;10.00;99.90;;;;;;5018606;28;20056;-79
2023/10/25 09:39:39;;;;;;;0.30;0.30;;;10.20;99.90;;;;;;5018151;28;20809;-80
2023/10/25 09:42:12;;;;;;;0.95;0.90;;;10.40;99.90;;;;;;5018562;28;20041;-80
2023/10/25 09:44:47;;;;;;;9.27;3.30;;;10.30;99.90;;;;;;5019444;28;20064;-80
2023/10/25 09:47:15;;;;;;;0.22;0.22;;;11.10;99.90;;;;;;5018564;28;20049;-80
2023/10/25 09:49:54;;;;;;;0.80;0.80;;;10.40;99.90;;;;;;5019085;28;20038;-80
2023/10/25 09:52:25;;;;;;;1.35;1.25;;;10.70;99.90;;;;;;5018243;28;20049;-79
2023/10/25 09:54:52;;;;;;;1.58;0.65;;;10.90;99.90;;;;;;5019152;28;20048;-79
2023/10/25 09:57:19;;;;;;;0.98;0.68;;;10.90;99.90;;;;;;5019009;28;20385;-80
2023/10/25 09:59:45;;;;;;;1.45;0.93;;;11.10;99.90;;;;;;5018873;28;20995;-79
2023/10/25 10:02:34;;;;;;;0.45;0.43;;;11.10;99.90;;;;;;5017947;28;20129;-79
2023/10/25 10:05:08;;;;;;;0.70;0.55;;;11.30;99.90;;;;;;5019191;28;20117;-80
2023/10/25 10:07:57;;;;;;;0.75;0.35;;;11.40;99.90;;;;;;5019434;28;20042;-80
2023/10/25 10:10:37;;;;;;;0.35;0.20;;;11.50;99.90;;;;;;5016506;28;20033;-80
2023/10/25 10:13:33;;;;;;;1.50;1.27;;;11.70;99.90;;;;;;5019332;28;20046;-80
2023/10/25 10:16:09;;;;;;;0.52;0.40;;;11.80;99.90;;;;;;5018275;28;20045;-79
2023/10/25 10:18:38;;;;;;;;;;;12.00;99.90;;;;;;5019578;28;20068;-80
2023/10/25 10:21:09;;;;;;;0.85;0.52;;;12.30;99.90;;;;;;5019339;28;19972;-80
2023/10/25 10:23:38;;;;;;;0.20;0.17;;;12.20;1.00;;;;;;5011055;28;20053;-79
2023/10/25 10:26:05;;;;;;;1.38;0.50;;;12.20;99.90;;;;;;5019227;28;20078;-80
2023/10/25 10:28:46;;;;;;;13.23;0.38;;;12.30;99.90;;;;;;5018789;28;20435;-80
2023/10/25 10:31:13;;;;;;;0.80;0.70;;;12.40;1.00;;;;;;5018334;28;20041;-80
2023/10/25 10:33:46;;;;;;;1.02;0.63;;;12.60;96.30;;;;;;5018124;28;20042;-80
2023/10/25 10:36:38;;;;;;;0.28;0.28;;;12.70;16.20;;;;;;5018747;28;20084;-80
2023/10/25 10:39:11;;;;;;;0.60;0.40;;;12.80;1.00;;;;;;5000297;28;20050;-79
2023/10/25 10:41:38;;;;;;;0.77;0.70;;;12.50;1.00;;;;;;5016743;28;20045;-79
2023/10/25 10:44:03;;;;;;;4.15;1.02;;;12.40;99.90;;;;;;5018170;28;20041;-79
2023/10/25 10:46:30;;;;;;;0.13;0.13;;;12.30;99.90;;;;;;5018578;28;20223;-79
2023/10/25 10:49:00;;;;;;;0.30;0.30;;;12.30;99.90;;;;;;5018538;28;20081;-79
2023/10/25 10:51:27;;;;;;;2.03;0.88;;;12.30;1.00;;;;;;5017881;28;20079;-79
2023/10/25 10:53:53;;;;;;;0.98;0.63;;;12.30;42.40;;;;;;5017798;28;20403;-79
2023/10/25 10:56:19;;;;;;;0.00;0.00;;;12.30;99.90;;;;;;5017029;28;20085;-79
2023/10/25 10:58:45;;;;;;;1.00;0.65;;;12.40;1.00;;;;;;5019075;28;20104;-79
2023/10/25 11:01:11;;;;;;;0.85;0.60;;;12.50;99.90;;;;;;5022746;28;20451;-79
2023/10/25 11:03:37;;;;;;;0.95;0.73;;;12.40;24.60;;;;;;5020799;28;20134;-79
2023/10/25 11:06:04;;;;;;;0.20;0.15;;;12.40;90.80;;;;;;5022096;28;20073;-79
2023/10/25 11:08:32;;;;;;;0.38;0.38;;;12.40;99.90;;;;;;5022795;28;20034;-79
2023/10/25 11:10:58;;;;;;;1.02;0.38;;;12.50;10.80;;;;;;5021127;28;20103;-80
2023/10/25 11:13:23;;;;;;;1.45;0.60;;;12.60;1.00;;;;;;5023032;28;20044;-80
2023/10/25 11:15:59;;;;;;;1.08;0.85;;;12.80;99.90;;;;;;5023341;28;20105;-80
2023/10/25 11:18:25;;;;;;;0.43;0.10;;;12.80;1.00;;;;;;5024080;28;20112;-80
2023/10/25 11:20:50;;;;;;;0.10;0.10;;;12.80;99.90;;;;;;5023674;28;20069;-80
2023/10/25 11:23:16;;;;;;;7.28;0.80;;;12.80;99.90;;;;;;5023250;28;20049;-80
2023/10/25 11:25:41;;;;;;;1.08;0.55;;;12.80;1.00;;;;;;5023107;28;20044;-80
2023/10/25 11:28:08;;;;;;;0.28;0.28;;;12.60;63.70;;;;;;5023413;28;20495;-79
2023/10/25 11:30:34;;;;;;;0.22;0.22;;;12.50;99.90;;;;;;5022715;28;20101;-80
2023/10/25 11:33:01;;;;;;;0.38;0.30;;;12.60;99.90;;;;;;5022056;28;20454;-80
2023/10/25 11:35:27;;;;;;;0.17;0.17;;;12.50;99.90;;;;;;5022402;28;20073;-80
2023/10/25 11:37:53;;;;;;;0.47;0.47;;;12.50;99.90;;;;;;5022760;28;20038;-80
2023/10/25 11:40:19;;;;;;;0.13;0.13;;;12.50;99.90;;;;;;5022051;28;20124;-80
2023/10/25 11:42:45;;;;;;;1.45;0.77;;;12.40;1.00;;;;;;5022773;28;20045;-80
2023/10/25 11:45:10;;;;;;;0.55;0.55;;;12.30;1.00;;;;;;5022050;28;20157;-79
2023/10/25 11:47:38;;;;;;;0.45;0.35;;;12.30;99.90;;;;;;5022304;28;20033;-79
2023/10/25 11:50:04;;;;;;;0.25;0.20;;;12.30;99.90;;;;;;5022826;28;20066;-80
2023/10/25 11:52:31;;;;;;;1.75;0.90;;;12.20;99.90;;;;;;5022311;28;20535;-80
2023/10/25 11:54:58;;;;;;;0.30;0.30;;;13.20;99.90;;;;;;5020809;28;20050;-80
2023/10/25 11:57:36;;;;;;;1.45;1.08;;;12.10;1.00;;;;;;5021510;28;20057;-80
2023/10/25 12:00:03;;;;;;;2.00;0.60;;;12.10;99.90;;;;;;5021808;28;20042;-80
2023/10/25 12:02:29;;;;;;;0.32;0.22;;;12.20;99.90;;;;;;5021103;28;20125;-80
2023/10/25 12:04:55;;;;;;;0.30;0.30;;;12.30;99.90;;;;;;5020298;28;20097;-80
2023/10/25 12:07:22;;;;;;;0.10;0.10;;;12.20;99.90;;;;;;5021847;28;20121;-80
2023/10/25 12:09:52;;;;;;;0.22;0.22;;;12.10;99.90;;;;;;5021128;28;20061;-80
2023/10/25 12:12:19;;;;;;;0.30;0.28;;;12.20;99.90;;;;;;5021407;28;20120;-80
2023/10/25 12:14:44;;;;;;;1.33;0.60;;;12.40;99.90;;;;;;5020250;28;20069;-79
2023/10/25 12:17:10;;;;;;;2.92;0.90;;;12.10;99.90;;;;;;5021254;28;20108;-79
2023/10/25 12:19:36;;;;;;;0.20;0.20;;;12.00;85.80;;;;;;5021140;28;20041;-79
2023/10/25 12:22:07;;;;;;;0.43;0.40;;;11.90;5.00;;;;;;5022117;28;20038;-80
2023/10/25 12:24:33;;;;;;;0.00;0.00;;;11.90;1.00;;;;;;5005481;28;20061;-80
2023/10/25 12:27:00;;;;;;;0.30;0.22;;;11.90;1.00;;;;;;5021930;28;20042;-79
2023/10/25 12:29:26;;;;;;;0.30;0.30;;;11.90;99.90;;;;;;5020951;28;20038;-79
2023/10/25 12:31:51;;;;;;;0.10;0.10;;;11.80;99.90;;;;;;5021542;28;20391;-79
2023/10/25 12:34:17;;;;;;;0.00;0.00;;;11.80;99.90;;;;;;5021846;28;20042;-79
2023/10/25 12:36:42;;;;;;;0.43;0.25;;;11.80;99.90;;;;;;5021527;28;20041;-80
2023/10/25 12:39:08;;;;;;;0.00;0.00;;;11.80;99.90;;;;;;5021313;28;20041;-79
2023/10/25 12:41:34;;;;;;;0.40;0.40;;;11.80;99.90;;;;;;5020311;28;20038;-79
2023/10/25 12:44:04;;;;;;;0.22;0.22;;;11.70;99.90;;;;;;5021638;28;20041;-80
2023/10/25 12:46:32;;;;;;;0.25;0.17;;;11.70;99.90;;;;;;5020556;28;20050;-80
2023/10/25 12:48:58;;;;;;;1.20;0.30;;;11.70;2.30;;;;;;5013989;28;20034;-79
2023/10/25 12:51:23;;;;;;;0.75;0.32;;;11.70;99.90;;;;;;5021687;28;20100;-80
2023/10/25 12:53:49;;;;;;;0.15;0.13;;;12.50;14.80;;;;;;5020968;28;20049;-80
2023/10/25 12:56:15;;;;;;;0.57;0.38;;;11.70;1.00;;;;;;5020461;28;20065;-80